createdAt,value
2018-04-20T00:02:17.467Z,93.50
2018-04-20T00:04:44.955Z,93.30
2018-04-20T00:07:12.857Z,93.10
2018-04-20T00:09:40.358Z,93.10
2018-04-20T00:12:07.844Z,93.00
2018-04-20T00:14:35.715Z,93.30
2018-04-20T00:17:03.615Z,93.30
2018-04-20T00:19:31.163Z,93.30
2018-04-20T00:21:58.675Z,92.80
2018-04-20T00:24:26.262Z,92.80
2018-04-20T00:26:53.743Z,93.80
2018-04-20T00:29:21.337Z,93.60
2018-04-20T00:31:48.809Z,93.40
2018-04-20T00:34:17.171Z,94.50
2018-04-20T00:36:44.638Z,94.50
2018-04-20T00:39:13.111Z,94.30
2018-04-20T00:41:40.588Z,94.00
2018-04-20T00:44:08.475Z,94.30
2018-04-20T00:46:35.939Z,94.30
2018-04-20T00:49:03.416Z,94.90
2018-04-20T00:51:30.907Z,95.20
2018-04-20T00:54:10.176Z,95.30
2018-04-20T00:56:37.668Z,95.40
2018-04-20T00:59:05.136Z,95.00
2018-04-20T01:01:32.599Z,95.50
2018-04-20T01:04:00.091Z,95.20
2018-04-20T01:06:27.947Z,95.50
2018-04-20T01:08:55.846Z,95.80
2018-04-20T01:11:23.325Z,95.80
2018-04-20T01:13:50.793Z,95.80
2018-04-20T01:16:18.302Z,96.20
2018-04-20T01:18:45.769Z,95.50
2018-04-20T01:21:13.271Z,95.80
2018-04-20T01:23:40.743Z,95.80
2018-04-20T01:26:08.217Z,95.00
2018-04-20T01:28:36.126Z,95.30
2018-04-20T01:31:03.594Z,95.30
2018-04-20T01:33:31.057Z,96.10
2018-04-20T01:35:58.527Z,95.80
2018-04-20T01:38:26.022Z,95.20
2018-04-20T01:40:53.501Z,95.10
2018-04-20T01:43:20.975Z,95.80
2018-04-20T01:45:48.442Z,95.70
2018-04-20T01:48:15.937Z,95.20
2018-04-20T01:50:43.828Z,96.00
2018-04-20T01:53:11.310Z,96.00
2018-04-20T01:55:38.831Z,96.20
2018-04-20T01:58:06.703Z,95.90
2018-04-20T02:00:34.184Z,95.90
2018-04-20T02:03:01.651Z,96.00
2018-04-20T02:05:29.142Z,96.40
2018-04-20T02:07:56.626Z,96.20
2018-04-20T02:10:24.119Z,96.90
2018-04-20T02:12:51.648Z,96.40
2018-04-20T02:15:19.158Z,96.90
2018-04-20T02:17:46.641Z,97.00
2018-04-20T02:20:14.519Z,97.00
2018-04-20T02:22:42.027Z,97.00
2018-04-20T02:25:09.506Z,97.00
2018-04-20T02:27:36.982Z,96.90
2018-04-20T02:30:04.853Z,96.80
2018-04-20T02:32:32.750Z,97.00
2018-04-20T02:35:00.254Z,97.00
2018-04-20T02:37:27.738Z,97.00
2018-04-20T02:39:55.220Z,97.00
2018-04-20T02:42:22.691Z,97.00
2018-04-20T02:44:50.179Z,97.00
2018-04-20T02:47:17.649Z,97.00
2018-04-20T02:49:45.509Z,97.00
2018-04-20T02:52:13.395Z,97.00
2018-04-20T02:54:41.267Z,97.00
2018-04-20T02:57:08.770Z,97.00
2018-04-20T02:59:36.270Z,97.00
2018-04-20T03:02:04.169Z,97.00
2018-04-20T03:04:31.651Z,97.00
2018-04-20T03:06:59.138Z,97.00
2018-04-20T03:09:27.048Z,97.00
2018-04-20T03:11:54.534Z,97.00
2018-04-20T03:14:22.000Z,97.00
2018-04-20T03:16:49.482Z,97.00
2018-04-20T03:19:17.355Z,97.00
2018-04-20T03:21:45.252Z,97.00
2018-04-20T03:24:12.723Z,97.00
2018-04-20T03:26:40.210Z,97.00
2018-04-20T03:29:07.675Z,97.00
2018-04-20T03:31:35.171Z,97.00
2018-04-20T03:34:02.647Z,97.00
2018-04-20T03:36:31.126Z,97.00
2018-04-20T03:38:58.604Z,97.00
2018-04-20T03:41:26.074Z,97.00
2018-04-20T03:43:53.561Z,97.00
2018-04-20T03:46:21.423Z,97.00
2018-04-20T03:48:49.312Z,97.00
2018-04-20T03:51:16.778Z,97.00
2018-04-20T03:53:44.247Z,97.00
2018-04-20T03:56:11.745Z,97.00
2018-04-20T03:58:39.207Z,97.00
2018-04-20T04:01:07.078Z,97.00
2018-04-20T04:03:34.959Z,97.00
2018-04-20T04:06:02.453Z,97.00
2018-04-20T04:08:29.943Z,97.00
2018-04-20T04:10:57.407Z,97.00
2018-04-20T04:13:26.655Z,97.00
2018-04-20T04:15:54.127Z,97.00
2018-04-20T04:18:33.445Z,97.00
2018-04-20T04:21:12.861Z,97.00
2018-04-20T04:23:52.324Z,97.00
2018-04-20T04:26:31.554Z,97.00
2018-04-20T04:28:59.038Z,97.00
2018-04-20T04:31:26.521Z,97.00
2018-04-20T04:33:54.419Z,97.00
2018-04-20T04:36:21.901Z,97.00
2018-04-20T04:38:49.371Z,97.00
2018-04-20T04:41:16.854Z,97.00
2018-04-20T04:43:44.724Z,97.00
2018-04-20T04:46:12.610Z,97.00
2018-04-20T04:48:40.077Z,97.00
2018-04-20T04:51:07.561Z,97.00
2018-04-20T04:53:35.045Z,97.00
2018-04-20T04:56:02.524Z,97.00
2018-04-20T04:58:30.429Z,97.00
2018-04-20T05:00:57.863Z,97.00
2018-04-20T05:03:25.372Z,97.00
2018-04-20T05:05:52.831Z,97.00
2018-04-20T05:08:20.349Z,97.00
2018-04-20T05:10:47.831Z,97.00
2018-04-20T05:13:15.327Z,97.00
2018-04-20T05:15:43.215Z,97.00
2018-04-20T05:18:10.686Z,97.00
2018-04-20T05:20:38.191Z,97.00
2018-04-20T05:23:05.671Z,96.60
2018-04-20T05:25:33.152Z,95.70
2018-04-20T05:28:00.630Z,95.00
2018-04-20T05:30:28.104Z,94.70
2018-04-20T05:32:55.610Z,93.90
2018-04-20T05:35:23.086Z,93.50
2018-04-20T05:37:50.560Z,92.60
2018-04-20T05:40:18.032Z,92.50
2018-04-20T05:42:45.551Z,92.10
2018-04-20T05:45:13.030Z,91.20
2018-04-20T05:47:40.512Z,90.60
2018-04-20T05:50:08.034Z,90.10
2018-04-20T05:52:35.518Z,90.30
2018-04-20T05:55:03.007Z,90.40
2018-04-20T05:57:30.904Z,89.10
2018-04-20T05:59:58.383Z,89.10
2018-04-20T06:02:25.866Z,88.40
2018-04-20T06:04:53.374Z,87.50
2018-04-20T06:07:20.846Z,86.90
2018-04-20T06:09:48.331Z,86.20
2018-04-20T06:12:15.816Z,85.80
2018-04-20T06:14:43.680Z,84.60
2018-04-20T06:17:11.588Z,84.00
2018-04-20T06:19:39.071Z,84.00
2018-04-20T06:22:06.622Z,82.70
2018-04-20T06:24:34.166Z,82.20
2018-04-20T06:27:01.685Z,81.40
2018-04-20T06:29:29.214Z,80.60
2018-04-20T06:31:56.689Z,79.80
2018-04-20T06:34:24.571Z,78.50
2018-04-20T06:36:52.460Z,77.60
2018-04-20T06:39:19.945Z,77.60
2018-04-20T06:41:47.452Z,77.10
2018-04-20T06:44:15.338Z,75.70
2018-04-20T06:46:42.798Z,75.70
2018-04-20T06:49:10.302Z,74.50
2018-04-20T06:51:37.800Z,73.40
2018-04-20T06:54:05.289Z,72.60
2018-04-20T06:56:32.792Z,71.60
2018-04-20T06:59:00.673Z,70.90
2018-04-20T07:01:28.162Z,70.90
2018-04-20T07:03:55.644Z,70.80
2018-04-20T07:06:23.138Z,69.80
2018-04-20T07:08:51.003Z,68.10
2018-04-20T07:11:18.896Z,67.70
2018-04-20T07:13:46.365Z,67.70
2018-04-20T07:16:13.919Z,66.80
2018-04-20T07:18:41.426Z,66.50
2018-04-20T07:21:08.896Z,66.90
2018-04-20T07:23:36.764Z,66.40
2018-04-20T07:26:04.658Z,66.50
2018-04-20T07:28:32.140Z,66.50
2018-04-20T07:30:59.606Z,66.90
2018-04-20T07:33:27.083Z,66.60
2018-04-20T07:35:54.547Z,65.70
2018-04-20T07:38:22.431Z,65.30
2018-04-20T07:40:50.317Z,64.30
2018-04-20T07:43:17.787Z,64.30
2018-04-20T07:45:45.284Z,65.50
2018-04-20T07:48:12.747Z,64.60
2018-04-20T07:50:40.233Z,63.80
2018-04-20T07:53:07.739Z,60.50
2018-04-20T07:55:35.210Z,60.70
2018-04-20T07:58:02.672Z,58.10
2018-04-20T08:00:30.166Z,57.00
2018-04-20T08:02:57.642Z,55.90
2018-04-20T08:05:25.134Z,54.50
2018-04-20T08:07:52.609Z,54.20
2018-04-20T08:10:20.479Z,54.70
2018-04-20T08:12:48.351Z,53.80
2018-04-20T08:15:16.210Z,54.10
2018-04-20T08:17:44.102Z,54.70
2018-04-20T08:20:11.634Z,54.70
2018-04-20T08:22:39.071Z,53.40
2018-04-20T08:25:06.567Z,53.10
2018-04-20T08:27:34.050Z,53.60
2018-04-20T08:30:01.558Z,53.80
2018-04-20T08:32:29.462Z,53.40
2018-04-20T08:34:56.944Z,53.40
2018-04-20T08:37:24.410Z,53.10
2018-04-20T08:39:51.884Z,53.40
2018-04-20T08:42:19.363Z,53.00
2018-04-20T08:44:47.228Z,53.30
2018-04-20T08:47:14.729Z,53.30
2018-04-20T08:49:42.206Z,53.40
2018-04-20T08:52:09.704Z,53.90
2018-04-20T08:54:37.180Z,54.00
2018-04-20T08:57:04.671Z,53.80
2018-04-20T08:59:32.166Z,54.00
2018-04-20T09:02:00.050Z,53.80
2018-04-20T09:04:27.560Z,53.80
2018-04-20T09:06:55.041Z,53.50
2018-04-20T09:09:22.918Z,53.30
2018-04-20T09:11:50.794Z,53.10
2018-04-20T09:14:18.284Z,53.10
2018-04-20T09:16:45.778Z,52.60
2018-04-20T09:19:13.263Z,53.10
2018-04-20T09:21:40.723Z,53.10
2018-04-20T09:24:08.204Z,53.10
2018-04-20T09:26:35.691Z,53.40
2018-04-20T09:29:03.161Z,52.30
2018-04-20T09:31:30.632Z,52.60
2018-04-20T09:33:58.539Z,51.80
2018-04-20T09:36:26.038Z,51.80
2018-04-20T09:38:53.511Z,51.80
2018-04-20T09:41:21.401Z,52.20
2018-04-20T09:43:48.876Z,52.10
2018-04-20T09:46:16.404Z,51.90
2018-04-20T09:48:43.854Z,52.20
2018-04-20T09:51:11.740Z,52.30
2018-04-20T09:53:39.238Z,52.30
2018-04-20T09:56:06.720Z,52.30
2018-04-20T09:58:34.217Z,52.20
2018-04-20T10:01:07.454Z,51.70
2018-04-20T10:03:34.939Z,51.80
2018-04-20T10:06:09.320Z,51.70
2018-04-20T10:08:36.805Z,51.00
2018-04-20T10:11:04.698Z,51.20
2018-04-20T10:13:32.199Z,51.20
2018-04-20T10:15:59.670Z,50.90
2018-04-20T10:18:27.139Z,51.60
2018-04-20T10:20:54.615Z,51.40
2018-04-20T10:23:22.479Z,50.80
2018-04-20T10:25:50.354Z,51.60
2018-04-20T10:28:17.836Z,51.60
2018-04-20T10:30:45.331Z,51.70
2018-04-20T10:33:12.800Z,51.70
2018-04-20T10:35:40.284Z,51.10
2018-04-20T10:38:07.763Z,50.80
2018-04-20T10:40:35.226Z,50.40
2018-04-20T10:43:02.707Z,50.30
2018-04-20T10:45:30.185Z,49.50
2018-04-20T10:47:57.674Z,48.90
2018-04-20T10:50:25.171Z,49.10
2018-04-20T10:52:52.677Z,48.80
2018-04-20T10:55:20.150Z,48.40
2018-04-20T10:57:47.639Z,48.80
2018-04-20T11:00:15.132Z,49.40
2018-04-20T11:02:43.010Z,48.90
2018-04-20T11:05:10.891Z,49.00
2018-04-20T11:07:38.666Z,49.00
2018-04-20T11:10:06.128Z,49.00
2018-04-20T11:12:33.610Z,49.10
2018-04-20T11:15:01.099Z,48.70
2018-04-20T11:17:28.987Z,49.10
2018-04-20T11:19:56.455Z,49.10
2018-04-20T11:22:23.953Z,48.90
2018-04-20T11:24:51.428Z,49.50
2018-04-20T11:27:19.320Z,49.90
2018-04-20T11:29:46.822Z,49.90
2018-04-20T11:32:14.300Z,49.50
2018-04-20T11:34:41.782Z,49.00
2018-04-20T11:37:09.710Z,48.80
2018-04-20T11:39:37.209Z,48.80
2018-04-20T11:42:05.079Z,49.60
2018-04-20T11:44:32.585Z,49.60
2018-04-20T11:47:00.070Z,49.40
2018-04-20T11:49:27.552Z,49.20
2018-04-20T11:51:55.048Z,49.00
2018-04-20T11:54:22.560Z,49.30
2018-04-20T11:56:50.464Z,49.60
2018-04-20T11:59:17.947Z,49.60
2018-04-20T12:01:45.429Z,50.00
2018-04-20T12:04:13.302Z,49.20
2018-04-20T12:06:41.197Z,48.90
2018-04-20T12:09:18.126Z,48.90
2018-04-20T12:11:45.609Z,49.00
2018-04-20T12:14:13.483Z,48.90
2018-04-20T12:16:40.956Z,48.90
2018-04-20T12:19:08.436Z,48.70
2018-04-20T12:21:35.911Z,49.20
2018-04-20T12:24:03.394Z,49.80
2018-04-20T12:26:31.264Z,48.80
2018-04-20T12:28:59.139Z,48.50
2018-04-20T12:31:27.012Z,48.60
2018-04-20T12:33:54.514Z,48.60
2018-04-20T12:36:22.295Z,48.00
2018-04-20T12:38:49.784Z,47.90
2018-04-20T12:41:17.335Z,48.00
2018-04-20T12:43:44.782Z,47.10
2018-04-20T12:46:12.259Z,48.00
2018-04-20T12:48:39.911Z,47.80
2018-04-20T12:51:08.791Z,48.50
2018-04-20T12:53:40.550Z,48.50
2018-04-20T12:56:08.695Z,48.40
2018-04-20T12:58:36.336Z,48.40
2018-04-20T13:01:04.233Z,48.00
2018-04-20T13:03:31.749Z,47.50
2018-04-20T13:05:59.239Z,47.80
2018-04-20T13:08:26.731Z,47.30
2018-04-20T13:10:54.616Z,48.00
2018-04-20T13:13:22.111Z,48.00
2018-04-20T13:15:49.586Z,48.80
2018-04-20T13:18:17.071Z,48.40
2018-04-20T13:20:44.961Z,48.60
2018-04-20T13:23:12.454Z,48.60
2018-04-20T13:25:39.993Z,47.90
2018-04-20T13:28:07.476Z,48.20
2018-04-20T13:30:34.952Z,48.70
2018-04-20T13:33:02.828Z,48.60
2018-04-20T13:35:30.735Z,48.70
2018-04-20T13:37:58.601Z,48.80
2018-04-20T13:40:26.087Z,48.80
2018-04-20T13:42:53.582Z,48.20
2018-04-20T13:45:21.097Z,48.10
2018-04-20T13:47:48.557Z,47.70
2018-04-20T13:50:16.036Z,47.40
2018-04-20T13:52:43.512Z,47.40
2018-04-20T13:55:10.995Z,47.10
2018-04-20T13:57:38.484Z,47.20
2018-04-20T14:00:06.195Z,46.80
2018-04-20T14:02:33.696Z,45.90
2018-04-20T14:05:01.183Z,47.00
2018-04-20T14:07:29.089Z,47.10
2018-04-20T14:09:56.590Z,47.10
2018-04-20T14:12:24.238Z,47.10
2018-04-20T14:14:51.704Z,46.00
2018-04-20T14:17:19.194Z,46.00
2018-04-20T14:19:47.086Z,44.90
2018-04-20T14:22:14.571Z,44.90
2018-04-20T14:24:42.084Z,45.20
2018-04-20T14:27:09.597Z,45.30
2018-04-20T14:29:37.080Z,44.30
2018-04-20T14:32:04.555Z,44.40
2018-04-20T14:34:32.038Z,44.70
2018-04-20T14:36:59.539Z,44.70
2018-04-20T14:39:27.018Z,44.70
2018-04-20T14:41:59.505Z,44.00
2018-04-20T14:44:27.053Z,44.00
2018-04-20T14:46:54.938Z,45.10
2018-04-20T14:49:22.418Z,45.10
2018-04-20T14:51:49.904Z,45.40
2018-04-20T14:54:17.386Z,45.20
2018-04-20T14:56:45.272Z,45.40
2018-04-20T14:59:12.755Z,45.40
2018-04-20T15:01:40.237Z,45.60
2018-04-20T15:04:07.726Z,45.90
2018-04-20T15:06:35.623Z,46.50
2018-04-20T15:09:03.093Z,46.50
2018-04-20T15:11:30.582Z,47.10
2018-04-20T15:13:58.090Z,46.60
2018-04-20T15:16:25.578Z,46.80
2018-04-20T15:18:53.136Z,46.50
2018-04-20T15:21:20.542Z,46.50
2018-04-20T15:23:48.449Z,47.40
2018-04-20T15:26:15.929Z,47.40
2018-04-20T15:28:43.417Z,47.00
2018-04-20T15:31:11.279Z,47.60
2018-04-20T15:33:39.142Z,48.30
2018-04-20T15:36:07.061Z,49.30
2018-04-20T15:38:34.554Z,49.30
2018-04-20T15:41:02.038Z,49.90
2018-04-20T15:43:29.531Z,49.50
2018-04-20T15:45:57.005Z,49.30
2018-04-20T15:48:24.505Z,49.10
2018-04-20T15:50:52.561Z,49.50
2018-04-20T15:53:21.682Z,49.90
2018-04-20T15:55:49.178Z,49.90
2018-04-20T15:58:16.661Z,50.20
2018-04-20T16:00:44.187Z,49.50
2018-04-20T16:03:11.659Z,49.70
2018-04-20T16:05:39.764Z,50.00
2018-04-20T16:08:07.670Z,50.10
2018-04-20T16:10:35.131Z,50.10
2018-04-20T16:13:02.616Z,50.10
2018-04-20T16:15:30.130Z,50.80
2018-04-20T16:17:57.671Z,51.40
2018-04-20T16:20:25.155Z,51.30
2018-04-20T16:22:52.648Z,51.90
2018-04-20T16:25:20.119Z,52.90
2018-04-20T16:27:47.624Z,53.20
2018-04-20T16:30:15.148Z,53.60
2018-04-20T16:32:43.024Z,53.50
2018-04-20T16:35:10.554Z,53.50
2018-04-20T16:37:38.339Z,54.20
2018-04-20T16:40:07.811Z,54.60
2018-04-20T16:42:35.299Z,54.60
2018-04-20T16:45:03.198Z,54.70
2018-04-20T16:47:30.715Z,54.70
2018-04-20T16:49:58.602Z,54.70
2018-04-20T16:52:26.117Z,54.70
2018-04-20T16:54:53.595Z,54.60
2018-04-20T16:57:21.480Z,55.30
2018-04-20T16:59:48.985Z,55.30
2018-04-20T17:02:16.451Z,55.60
2018-04-20T17:04:43.925Z,55.40
2018-04-20T17:07:11.473Z,55.80
2018-04-20T17:09:38.967Z,55.50
2018-04-20T17:12:06.455Z,56.20
2018-04-20T17:14:33.967Z,56.10
2018-04-20T17:17:01.853Z,56.70
2018-04-20T17:19:29.322Z,56.70
2018-04-20T17:21:56.807Z,56.80
2018-04-20T17:24:24.304Z,56.90
2018-04-20T17:26:52.231Z,57.20
2018-04-20T17:29:19.733Z,57.20
2018-04-20T17:31:47.603Z,57.70
2018-04-20T17:34:15.501Z,57.80
2018-04-20T17:36:42.967Z,57.80
2018-04-20T17:39:10.503Z,58.10
2018-04-20T17:41:37.988Z,58.40
2018-04-20T17:44:05.459Z,58.40
2018-04-20T17:46:32.944Z,58.80
2018-04-20T17:49:00.818Z,59.00
2018-04-20T17:51:28.699Z,59.40
2018-04-20T17:53:56.192Z,59.40
2018-04-20T17:56:23.664Z,59.40
2018-04-20T17:58:51.134Z,59.40
2018-04-20T18:01:18.604Z,60.00
2018-04-20T18:03:46.140Z,60.00
2018-04-20T18:06:13.648Z,60.10
2018-04-20T18:08:41.250Z,60.30
2018-04-20T18:11:08.798Z,60.30
2018-04-20T18:13:36.313Z,60.80
2018-04-20T18:16:03.931Z,60.70
2018-04-20T18:18:31.378Z,61.20
2018-04-20T18:20:58.847Z,61.30
2018-04-20T18:23:26.351Z,61.80
2018-04-20T18:25:53.830Z,61.90
2018-04-20T18:28:21.445Z,62.40
2018-04-20T18:30:49.315Z,62.70
2018-04-20T18:33:17.192Z,62.90
2018-04-20T18:35:44.686Z,62.90
2018-04-20T18:38:12.200Z,63.60
2018-04-20T18:40:40.094Z,65.30
2018-04-20T18:43:07.574Z,65.30
2018-04-20T18:45:35.066Z,67.00
2018-04-20T18:48:02.941Z,67.80
2018-04-20T18:50:30.833Z,67.70
2018-04-20T18:52:58.342Z,67.70
2018-04-20T18:55:25.926Z,68.60
2018-04-20T18:57:53.795Z,68.90
2018-04-20T19:00:21.659Z,69.00
2018-04-20T19:02:49.543Z,69.50
2018-04-20T19:05:17.012Z,69.50
2018-04-20T19:07:44.491Z,70.10
2018-04-20T19:10:11.979Z,71.00
2018-04-20T19:12:39.479Z,71.80
2018-04-20T19:15:07.006Z,72.50
2018-04-20T19:17:34.523Z,73.60
2018-04-20T19:20:02.006Z,73.80
2018-04-20T19:22:29.584Z,74.40
2018-04-20T19:24:57.461Z,75.90
2018-04-20T19:27:24.933Z,75.90
2018-04-20T19:29:52.457Z,76.60
2018-04-20T19:32:20.343Z,77.10
2018-04-20T19:34:47.820Z,77.10
2018-04-20T19:37:15.341Z,77.30
2018-04-20T19:39:43.229Z,77.70
2018-04-20T19:42:10.730Z,77.70
2018-04-20T19:44:38.205Z,77.50
2018-04-20T19:47:05.672Z,78.20
2018-04-20T19:49:33.171Z,77.90
2018-04-20T19:52:00.816Z,78.70
2018-04-20T19:54:28.279Z,79.10
2018-04-20T19:56:55.763Z,79.00
2018-04-20T19:59:23.272Z,78.30
2018-04-20T20:01:51.268Z,77.70
2018-04-20T20:04:18.778Z,77.70
2018-04-20T20:06:46.699Z,78.00
2018-04-20T20:09:14.203Z,78.00
2018-04-20T20:11:41.670Z,77.60
2018-04-20T20:14:09.571Z,78.10
2018-04-20T20:16:37.062Z,78.10
2018-04-20T20:19:04.561Z,78.30
2018-04-20T20:21:32.425Z,77.60
2018-04-20T20:24:00.306Z,78.00
2018-04-20T20:26:27.838Z,78.10
2018-04-20T20:28:55.733Z,78.40
2018-04-20T20:31:23.223Z,78.40
2018-04-20T20:33:51.338Z,79.20
2018-04-20T20:36:19.207Z,78.70
2018-04-20T20:38:47.074Z,78.80
2018-04-20T20:41:14.568Z,78.80
2018-04-20T20:43:42.073Z,78.70
2018-04-20T20:46:09.578Z,78.90
2018-04-20T20:48:37.062Z,79.10
2018-04-20T20:51:04.555Z,79.40
2018-04-20T20:53:32.106Z,79.10
2018-04-20T20:56:00.119Z,80.20
2018-04-20T20:58:27.599Z,80.20
2018-04-20T21:00:55.121Z,79.80
2018-04-20T21:03:22.806Z,79.80
2018-04-20T21:05:50.319Z,79.90
2018-04-20T21:08:18.190Z,80.30
2018-04-20T21:10:46.109Z,80.60
2018-04-20T21:13:13.575Z,80.60
2018-04-20T21:15:41.068Z,80.60
2018-04-20T21:18:08.965Z,80.50
2018-04-20T21:20:36.452Z,80.50
2018-04-20T21:23:03.942Z,80.60
2018-04-20T21:25:31.438Z,81.30
2018-04-20T21:27:58.920Z,81.60
2018-04-20T21:30:26.407Z,81.60
2018-04-20T21:32:53.884Z,82.00
2018-04-20T21:35:21.806Z,82.40
2018-04-20T21:37:49.276Z,82.40
2018-04-20T21:40:16.770Z,82.50
2018-04-20T21:42:44.643Z,83.00
2018-04-20T21:45:12.115Z,83.00
2018-04-20T21:47:39.649Z,84.10
2018-04-20T21:50:07.550Z,84.10
2018-04-20T21:52:35.035Z,84.10
2018-04-20T21:55:02.515Z,84.50
2018-04-20T21:57:30.395Z,84.20
2018-04-20T21:59:58.286Z,84.70
2018-04-20T22:02:25.762Z,84.70
2018-04-20T22:04:53.265Z,84.80
2018-04-20T22:07:21.168Z,86.20
2018-04-20T22:09:48.642Z,86.20
2018-04-20T22:12:16.158Z,86.40
2018-04-20T22:14:44.023Z,86.70
2018-04-20T22:17:11.905Z,86.60
2018-04-20T22:19:39.407Z,86.60
2018-04-20T22:22:06.880Z,87.10
2018-04-20T22:24:34.364Z,87.10
2018-04-20T22:27:02.479Z,86.80
2018-04-20T22:29:30.002Z,86.80
2018-04-20T22:31:57.483Z,87.10
2018-04-20T22:34:24.987Z,87.20
2018-04-20T22:36:52.533Z,87.20
2018-04-20T22:39:20.090Z,87.30
2018-04-20T22:41:47.590Z,87.40
2018-04-20T22:44:15.127Z,88.50
2018-04-20T22:46:42.649Z,88.20
2018-04-20T22:49:10.175Z,88.50
2018-04-20T22:51:37.670Z,88.20
2018-04-20T22:54:05.135Z,88.60
2018-04-20T22:56:32.621Z,88.70
2018-04-20T22:59:00.491Z,88.60
2018-04-20T23:01:28.359Z,88.90
2018-04-20T23:03:56.249Z,89.00
2018-04-20T23:06:23.726Z,89.00
2018-04-20T23:08:51.211Z,89.00
2018-04-20T23:11:18.683Z,89.30
2018-04-20T23:13:46.545Z,89.40
2018-04-20T23:16:14.034Z,89.50
2018-04-20T23:18:41.518Z,89.50
2018-04-20T23:21:08.992Z,90.10
2018-04-20T23:23:36.490Z,89.80
2018-04-20T23:26:04.388Z,90.50
2018-04-20T23:28:31.867Z,90.60
2018-04-20T23:30:59.351Z,90.40
2018-04-20T23:33:26.834Z,90.60
2018-04-20T23:35:54.311Z,90.80
2018-04-20T23:38:21.805Z,91.00
2018-04-20T23:40:49.272Z,91.00
2018-04-20T23:43:16.759Z,91.00
2018-04-20T23:45:44.242Z,91.00
2018-04-20T23:48:11.726Z,91.20
2018-04-20T23:50:39.236Z,91.40
2018-04-20T23:53:06.714Z,91.70
2018-04-20T23:55:34.200Z,91.40
2018-04-20T23:58:01.663Z,92.10
